Time;durP1;ratioP1;P1;durP2;ratioP2;P2;SDS_P1;SDS_P2;PMS_P1;PMS_P2;Temp;Humidity;BMP_temperature;BMP_pressure;BME280_temperature;BME280_humidity;BME280_pressure;Samples;Min_cycle;Max_cycle;Signal;HPM_P1;HPM_P2
2022/07/19 00:02:46;;;;;;;5.40;3.30;;;24.40;51.70;;;;;;220580;1268;22531;-58
2022/07/19 00:07:50;;;;;;;6.20;3.20;;;24.30;51.40;;;;;;220206;1270;25403;-57
2022/07/19 00:12:55;;;;;;;5.80;3.40;;;24.30;52.00;;;;;;220649;1268;24297;-60
2022/07/19 00:17:59;;;;;;;5.20;3.60;;;24.30;51.50;;;;;;220456;1268;25423;-60
2022/07/19 00:23:03;;;;;;;6.00;3.80;;;24.30;51.50;;;;;;220530;1268;25251;-58
2022/07/19 00:28:07;;;;;;;6.80;3.40;;;24.30;51.50;;;;;;220161;1268;22549;-57
2022/07/19 00:33:11;;;;;;;5.20;2.90;;;24.30;51.50;;;;;;220262;1268;22552;-61
2022/07/19 00:38:14;;;;;;;5.90;3.30;;;24.30;51.50;;;;;;220284;1268;24297;-61
2022/07/19 00:43:18;;;;;;;6.20;2.90;;;24.30;51.60;;;;;;220466;1268;22525;-60
2022/07/19 00:48:22;;;;;;;7.80;3.80;;;24.30;51.60;;;;;;220032;1268;24075;-59
2022/07/19 00:53:26;;;;;;;6.80;3.30;;;24.30;51.90;;;;;;220462;1268;23161;-60
2022/07/19 00:58:31;;;;;;;6.50;3.50;;;24.30;51.60;;;;;;220434;1268;22621;-61
2022/07/19 01:03:37;;;;;;;7.30;3.20;;;24.20;51.60;;;;;;220153;1268;24246;-58
2022/07/19 01:08:41;;;;;;;6.80;3.20;;;24.20;51.60;;;;;;220394;1268;22646;-60
2022/07/19 01:13:45;;;;;;;6.40;3.50;;;24.20;51.90;;;;;;220285;1268;22762;-60
2022/07/19 01:18:52;;;;;;;6.60;3.40;;;24.30;51.70;;;;;;220496;1268;24360;-61
2022/07/19 01:23:55;;;;;;;5.30;3.10;;;24.20;51.60;;;;;;220388;1268;25694;-59
2022/07/19 01:28:59;;;;;;;5.40;3.00;;;24.10;51.90;;;;;;220460;1268;22851;-62
2022/07/19 01:34:04;;;;;;;6.30;3.70;;;24.20;51.60;;;;;;220126;1268;616686;-58
2022/07/19 01:39:08;;;;;;;5.80;3.40;;;24.20;52.00;;;;;;220557;1268;22643;-59
2022/07/19 01:44:12;;;;;;;5.40;3.20;;;24.10;51.60;;;;;;220316;1271;22547;-59
2022/07/19 01:49:15;;;;;;;7.20;3.70;;;24.10;51.60;;;;;;220262;1269;22763;-61
2022/07/19 01:54:19;;;;;;;6.00;3.00;;;24.10;51.60;;;;;;220369;1268;24307;-61
2022/07/19 01:59:22;;;;;;;6.00;3.40;;;24.10;51.60;;;;;;220520;1267;25252;-60
2022/07/19 02:04:26;;;;;;;5.30;2.90;;;24.10;51.70;;;;;;220350;1268;25249;-59
2022/07/19 02:09:29;;;;;;;4.90;2.90;;;24.10;51.70;;;;;;220113;1268;22554;-61
2022/07/19 02:14:33;;;;;;;6.20;3.10;;;24.10;51.80;;;;;;220733;1268;22553;-60
2022/07/19 02:19:37;;;;;;;4.60;3.30;;;24.00;51.70;;;;;;220890;1268;24323;-66
2022/07/19 02:24:43;;;;;;;5.70;3.50;;;24.10;51.80;;;;;;220662;1268;22679;-59
2022/07/19 02:29:48;;;;;;;4.70;3.10;;;24.10;51.90;;;;;;220640;1268;24317;-60
2022/07/19 02:34:51;;;;;;;4.60;2.90;;;24.00;51.90;;;;;;220143;1268;25405;-57
2022/07/19 02:39:55;;;;;;;5.90;2.90;;;24.10;51.80;;;;;;220240;1268;24332;-58
2022/07/19 02:44:58;;;;;;;5.20;2.90;;;24.00;51.80;;;;;;220379;1268;22532;-59
2022/07/19 02:50:04;;;;;;;5.00;3.40;;;24.00;51.90;;;;;;220472;1268;24250;-62
2022/07/19 02:55:11;;;;;;;6.90;3.40;;;24.00;51.90;;;;;;220858;1268;22753;-60
2022/07/19 03:00:15;;;;;;;6.30;3.70;;;24.00;52.20;;;;;;220457;1268;22580;-62
2022/07/19 03:05:21;;;;;;;5.60;3.30;;;24.00;52.10;;;;;;220526;1268;24275;-60
2022/07/19 03:10:30;;;;;;;5.40;3.00;;;24.00;52.00;;;;;;220986;1268;24443;-60
2022/07/19 03:15:34;;;;;;;6.40;3.40;;;24.00;52.10;;;;;;220344;1268;24214;-58
2022/07/19 03:20:37;;;;;;;5.10;3.40;;;23.90;52.00;;;;;;220893;1268;22564;-62
2022/07/19 03:25:41;;;;;;;5.30;3.00;;;24.00;52.20;;;;;;220438;1268;22676;-60
2022/07/19 03:30:44;;;;;;;5.00;3.20;;;24.00;52.30;;;;;;220275;1268;22554;-60
2022/07/19 03:35:48;;;;;;;7.40;3.50;;;23.90;52.30;;;;;;220854;1268;22563;-60
2022/07/19 03:40:51;;;;;;;6.40;2.80;;;24.00;52.20;;;;;;220289;1268;24322;-60
2022/07/19 03:45:55;;;;;;;4.60;3.30;;;23.90;52.30;;;;;;220617;1267;25322;-59
2022/07/19 03:50:59;;;;;;;4.30;2.70;;;24.00;52.30;;;;;;220382;1268;22694;-60
2022/07/19 03:56:03;;;;;;;6.10;3.30;;;23.90;52.30;;;;;;220454;1268;24313;-60
2022/07/19 04:01:06;;;;;;;5.30;3.40;;;23.90;53.00;;;;;;220429;1267;22536;-60
2022/07/19 04:06:11;;;;;;;4.70;3.00;;;23.90;52.30;;;;;;220625;1267;22836;-61
2022/07/19 04:11:14;;;;;;;4.40;3.20;;;23.90;52.30;;;;;;220821;1267;22615;-60
2022/07/19 04:16:18;;;;;;;5.10;3.10;;;23.90;52.40;;;;;;220536;1268;24257;-59
2022/07/19 04:21:22;;;;;;;5.70;2.90;;;23.90;52.30;;;;;;220549;1267;24294;-59
2022/07/19 04:26:25;;;;;;;4.90;3.40;;;23.90;52.60;;;;;;220038;1268;22625;-58
2022/07/19 04:31:29;;;;;;;4.40;3.10;;;23.90;52.60;;;;;;220283;1267;24297;-59
2022/07/19 04:36:33;;;;;;;5.30;2.80;;;23.90;52.50;;;;;;220214;1267;25298;-60
2022/07/19 04:41:37;;;;;;;5.00;2.90;;;23.90;52.80;;;;;;220371;1267;25236;-63
2022/07/19 04:46:40;;;;;;;5.50;3.20;;;23.90;52.60;;;;;;220204;1268;26494;-61
2022/07/19 04:51:49;;;;;;;4.10;2.80;;;23.90;53.00;;;;;;220340;1267;22552;-64
2022/07/19 04:56:53;;;;;;;6.00;3.20;;;23.90;52.60;;;;;;220507;1267;25576;-59
2022/07/19 05:01:56;;;;;;;5.10;3.00;;;23.90;52.90;;;;;;220645;1267;25547;-59
2022/07/19 05:07:00;;;;;;;5.30;3.50;;;23.90;52.60;;;;;;220301;1268;23184;-60
2022/07/19 05:12:07;;;;;;;4.90;3.00;;;23.90;52.90;;;;;;220404;1268;22547;-59
2022/07/19 05:17:10;;;;;;;5.60;3.30;;;23.90;52.90;;;;;;220852;1268;22538;-59
2022/07/19 05:22:14;;;;;;;4.70;2.80;;;23.90;53.00;;;;;;220793;1268;22551;-60
2022/07/19 05:27:19;;;;;;;4.90;2.90;;;24.00;53.10;;;;;;220243;1268;22727;-62
2022/07/19 05:32:23;;;;;;;4.70;3.10;;;24.00;53.40;;;;;;220584;1268;22695;-60
2022/07/19 05:37:27;;;;;;;5.80;3.40;;;23.90;53.30;;;;;;220486;1268;23160;-59
2022/07/19 05:42:30;;;;;;;6.60;3.70;;;23.90;53.40;;;;;;220580;1267;25289;-60
2022/07/19 05:47:34;;;;;;;6.70;3.30;;;23.90;53.40;;;;;;220596;1267;22553;-58
2022/07/19 05:52:38;;;;;;;4.90;2.90;;;24.00;53.40;;;;;;220736;1267;22534;-59
2022/07/19 05:57:42;;;;;;;4.40;3.20;;;24.00;53.50;;;;;;220629;1268;22576;-61
2022/07/19 06:02:45;;;;;;;5.30;3.10;;;24.00;53.40;;;;;;220566;1268;22547;-60
2022/07/19 06:07:49;;;;;;;5.60;3.20;;;24.00;53.40;;;;;;220755;1267;24261;-60
2022/07/19 06:12:52;;;;;;;5.50;3.10;;;24.00;53.50;;;;;;220624;1267;22696;-60
2022/07/19 06:17:59;;;;;;;4.70;2.60;;;24.00;53.40;;;;;;220113;1268;24072;-57
2022/07/19 06:23:10;;;;;;;5.30;3.20;;;24.00;53.50;;;;;;220151;1268;22575;-59
2022/07/19 06:28:21;;;;;;;6.00;3.30;;;24.10;53.50;;;;;;220752;1267;22562;-60
2022/07/19 06:33:26;;;;;;;8.10;3.80;;;24.10;53.60;;;;;;220804;1267;22537;-59
2022/07/19 06:38:30;;;;;;;10.50;4.10;;;24.10;53.80;;;;;;220703;1267;22808;-59
2022/07/19 06:43:36;;;;;;;6.80;3.00;;;24.10;53.80;;;;;;220140;1267;24316;-58
2022/07/19 06:48:40;;;;;;;5.40;3.30;;;24.10;53.60;;;;;;220043;1267;22926;-60
2022/07/19 06:53:44;;;;;;;6.90;3.10;;;24.20;54.00;;;;;;220436;1268;24222;-60
2022/07/19 06:58:47;;;;;;;6.80;3.20;;;24.20;53.90;;;;;;220276;1267;22548;-60
2022/07/19 07:03:51;;;;;;;5.50;3.10;;;24.20;53.90;;;;;;220302;1267;22530;-60
2022/07/19 07:08:55;;;;;;;6.90;3.20;;;24.30;54.00;;;;;;220484;1267;23279;-59
2022/07/19 07:13:59;;;;;;;6.10;3.10;;;24.30;54.10;;;;;;220175;1270;22561;-60
2022/07/19 07:19:03;;;;;;;5.00;2.80;;;24.30;54.00;;;;;;220518;1268;26687;-59
2022/07/19 07:24:06;;;;;;;4.20;2.60;;;24.30;53.60;;;;;;220460;1267;24216;-59
2022/07/19 07:29:10;;;;;;;5.50;3.20;;;24.30;53.80;;;;;;220152;1270;24268;-59
2022/07/19 07:34:17;;;;;;;4.50;2.70;;;24.40;53.80;;;;;;220430;1267;22537;-59
2022/07/19 07:39:20;;;;;;;6.10;2.60;;;24.40;54.30;;;;;;220523;1267;24300;-59
2022/07/19 07:44:24;;;;;;;4.60;2.90;;;24.40;53.70;;;;;;220177;1267;23908;-59
2022/07/19 07:49:30;;;;;;;5.00;2.60;;;24.40;54.00;;;;;;220074;1268;22550;-59
2022/07/19 07:54:34;;;;;;;6.00;3.00;;;24.50;53.60;;;;;;220501;1267;24227;-59
2022/07/19 07:59:41;;;;;;;5.50;3.10;;;24.50;53.50;;;;;;219974;1268;22537;-57
2022/07/19 08:04:45;;;;;;;9.90;3.00;;;24.50;53.60;;;;;;219857;1268;22768;-58
2022/07/19 08:09:48;;;;;;;6.50;2.80;;;24.50;54.10;;;;;;219957;1268;22758;-57
2022/07/19 08:14:52;;;;;;;6.30;2.90;;;24.60;53.70;;;;;;220350;1268;25186;-59
2022/07/19 08:19:56;;;;;;;10.20;3.60;;;24.60;54.60;;;;;;220226;1268;22534;-60
2022/07/19 08:25:00;;;;;;;7.10;2.90;;;24.70;56.30;;;;;;220075;1267;22587;-60
2022/07/19 08:30:04;;;;;;;6.60;3.00;;;24.70;56.00;;;;;;220039;1268;25278;-57
2022/07/19 08:35:11;;;;;;;6.20;3.10;;;24.70;55.10;;;;;;220006;1270;22692;-58
2022/07/19 08:40:15;;;;;;;6.20;2.90;;;24.70;55.60;;;;;;219799;1267;22514;-59
2022/07/19 08:45:22;;;;;;;8.10;3.10;;;24.80;55.70;;;;;;220525;1269;22550;-60
2022/07/19 08:50:26;;;;;;;6.80;3.00;;;24.70;55.40;;;;;;220656;1267;22530;-58
2022/07/19 08:55:30;;;;;;;5.60;3.20;;;24.70;55.50;;;;;;220269;1268;22548;-59
2022/07/19 09:00:34;;;;;;;6.60;3.10;;;24.80;55.10;;;;;;220263;1270;22522;-59
2022/07/19 09:05:38;;;;;;;7.20;2.90;;;24.80;53.90;;;;;;220442;1267;22531;-57
2022/07/19 09:16:12;;;;;;;6.40;2.60;;;24.50;55.30;;;;;;220453;1267;24252;-59
2022/07/19 09:21:16;;;;;;;4.90;2.60;;;24.50;56.50;;;;;;220555;1267;25236;-60
2022/07/19 09:26:20;;;;;;;6.20;2.50;;;24.30;56.20;;;;;;220324;1267;25292;-60
2022/07/19 09:31:23;;;;;;;4.60;2.40;;;24.40;56.10;;;;;;220671;1267;24240;-56
2022/07/19 09:36:27;;;;;;;5.30;2.70;;;24.30;54.30;;;;;;219988;1267;22528;-61
2022/07/19 09:41:37;;;;;;;4.70;2.40;;;24.30;56.40;;;;;;220136;1270;26670;-58
2022/07/19 09:46:45;;;;;;;4.50;2.30;;;24.40;53.10;;;;;;220362;1269;24320;-59
2022/07/19 09:51:52;;;;;;;4.20;2.60;;;24.40;56.50;;;;;;220465;1267;24438;-59
2022/07/19 09:56:57;;;;;;;5.30;2.20;;;24.40;53.30;;;;;;220672;1267;25311;-60
2022/07/19 10:02:02;;;;;;;7.40;2.60;;;24.30;57.00;;;;;;220761;1267;22538;-58
2022/07/19 10:07:08;;;;;;;5.00;2.40;;;24.50;53.30;;;;;;220692;1266;26529;-59
2022/07/19 10:12:16;;;;;;;6.90;2.80;;;24.30;57.00;;;;;;220494;1268;22553;-59
2022/07/19 10:17:34;;;;;;;4.80;2.30;;;24.50;53.30;;;;;;220400;1267;22757;-60
2022/07/19 10:22:39;;;;;;;6.10;2.60;;;24.30;56.30;;;;;;220659;1267;22920;-58
2022/07/19 10:27:48;;;;;;;3.80;2.20;;;24.30;53.10;;;;;;220003;1268;22531;-59
2022/07/19 10:32:55;;;;;;;5.20;2.40;;;24.40;55.30;;;;;;220734;1267;22535;-58
2022/07/19 10:38:01;;;;;;;3.90;2.30;;;24.50;53.40;;;;;;220235;1267;22563;-59
2022/07/19 10:43:12;;;;;;;3.70;2.10;;;24.60;53.30;;;;;;220673;1267;22548;-58
2022/07/19 10:48:16;;;;;;;4.40;1.80;;;24.80;53.10;;;;;;220474;1267;25318;-60
2022/07/19 10:53:38;;;;;;;5.40;2.20;;;24.90;51.80;;;;;;220695;1267;22562;-58
2022/07/19 10:59:02;;;;;;;4.50;2.40;;;24.90;51.50;;;;;;220476;1268;24257;-58
2022/07/19 11:04:28;;;;;;;5.10;2.30;;;25.00;52.10;;;;;;220455;1267;22682;-60
2022/07/19 11:09:49;;;;;;;5.20;2.10;;;25.10;52.40;;;;;;220245;1268;22564;-58
2022/07/19 11:14:53;;;;;;;3.70;2.00;;;25.10;52.30;;;;;;220495;1270;23766;-58
2022/07/19 11:20:17;;;;;;;3.50;2.20;;;25.10;50.80;;;;;;220357;1267;23819;-57
2022/07/19 11:25:41;;;;;;;5.30;2.20;;;25.10;51.90;;;;;;220415;1268;22612;-60
2022/07/19 11:30:45;;;;;;;3.70;2.20;;;25.20;52.00;;;;;;220265;1268;22557;-60
2022/07/19 11:35:57;;;;;;;3.00;1.90;;;25.20;51.40;;;;;;220508;1267;25232;-59
2022/07/19 11:41:00;;;;;;;4.40;2.20;;;25.30;49.50;;;;;;220598;1268;23025;-59
2022/07/19 11:46:04;;;;;;;5.20;2.20;;;25.30;50.40;;;;;;220377;1267;24254;-57
2022/07/19 11:51:10;;;;;;;4.80;1.80;;;25.40;49.90;;;;;;220575;1269;22545;-60
2022/07/19 11:56:19;;;;;;;3.80;2.20;;;25.40;50.20;;;;;;220516;1267;24418;-59
2022/07/19 12:01:26;;;;;;;3.70;2.30;;;25.40;50.30;;;;;;220647;1267;22550;-61
2022/07/19 12:06:45;;;;;;;3.20;2.20;;;25.40;50.40;;;;;;220829;1267;22736;-59
2022/07/19 12:11:54;;;;;;;5.20;2.00;;;25.40;50.00;;;;;;220682;1267;22540;-59
2022/07/19 12:17:17;;;;;;;4.20;2.00;;;25.50;48.30;;;;;;220776;1267;24379;-59
2022/07/19 12:22:39;;;;;;;4.30;2.00;;;25.60;48.00;;;;;;220524;1268;22589;-59
2022/07/19 12:27:45;;;;;;;3.80;2.20;;;25.60;48.50;;;;;;220680;1267;24392;-57
2022/07/19 12:32:48;;;;;;;5.70;2.20;;;25.60;47.10;;;;;;220712;1267;25238;-60
2022/07/19 12:38:03;;;;;;;4.50;2.00;;;25.70;45.60;;;;;;220199;1270;24361;-58
2022/07/19 12:43:12;;;;;;;3.80;2.30;;;25.80;45.80;;;;;;220805;1267;25328;-59
2022/07/19 12:48:16;;;;;;;4.20;2.10;;;25.70;47.40;;;;;;220901;1267;22570;-62
2022/07/19 12:53:23;;;;;;;3.60;2.10;;;25.70;47.70;;;;;;220753;1267;22532;-59
2022/07/19 13:03:52;;;;;;;4.80;2.10;;;25.80;46.80;;;;;;220923;1267;22577;-59
2022/07/19 13:08:56;;;;;;;4.80;2.40;;;25.80;45.60;;;;;;220581;1267;22550;-58
2022/07/19 13:14:00;;;;;;;3.90;2.10;;;25.90;45.90;;;;;;220803;1267;22531;-58
2022/07/19 13:19:05;;;;;;;6.40;1.80;;;25.90;45.30;;;;;;220448;1268;22528;-59
2022/07/19 13:24:09;;;;;;;4.70;2.30;;;25.90;44.70;;;;;;220343;1269;22532;-59
2022/07/19 13:29:33;;;;;;;2.90;2.00;;;26.00;46.50;;;;;;220700;1267;22543;-59
2022/07/19 13:34:38;;;;;;;2.40;1.80;;;25.90;45.00;;;;;;220386;1267;523244;-60
2022/07/19 13:39:42;;;;;;;3.80;1.90;;;26.00;45.40;;;;;;220858;1267;22543;-58
2022/07/19 13:44:50;;;;;;;3.60;2.40;;;26.00;44.90;;;;;;220464;1267;22987;-61
2022/07/19 13:50:11;;;;;;;2.70;1.60;;;25.90;44.70;;;;;;220846;1267;22548;-57
2022/07/19 13:55:16;;;;;;;2.90;2.00;;;26.00;46.50;;;;;;220360;1267;26472;-59
2022/07/19 14:00:20;;;;;;;3.50;2.00;;;26.00;45.20;;;;;;220378;1270;25352;-59
2022/07/19 14:05:24;;;;;;;4.40;2.10;;;26.00;45.90;;;;;;220368;1267;22531;-59
2022/07/19 14:10:28;;;;;;;3.30;2.50;;;26.00;44.90;;;;;;220770;1267;22782;-59
2022/07/19 14:15:31;;;;;;;3.60;2.20;;;26.10;45.20;;;;;;220825;1267;22534;-58
2022/07/19 14:20:36;;;;;;;3.40;2.20;;;26.10;45.50;;;;;;220460;1267;22763;-58
2022/07/19 14:25:41;;;;;;;4.10;2.00;;;26.10;46.50;;;;;;220832;1267;22562;-60
2022/07/19 14:30:57;;;;;;;3.80;2.30;;;26.10;46.30;;;;;;220616;1267;22541;-59
2022/07/19 14:36:25;;;;;;;3.30;2.10;;;26.20;43.30;;;;;;220519;1267;23006;-61
2022/07/19 14:41:31;;;;;;;3.80;2.00;;;26.30;44.50;;;;;;220906;1267;24661;-55
2022/07/19 14:46:35;;;;;;;3.10;1.80;;;26.20;45.90;;;;;;220218;1270;22734;-59
2022/07/19 14:51:44;;;;;;;3.60;2.20;;;26.20;45.60;;;;;;220270;1267;22534;-57
2022/07/19 14:56:48;;;;;;;4.10;1.90;;;26.30;43.50;;;;;;220139;1268;22536;-60
2022/07/19 15:01:52;;;;;;;3.70;2.20;;;26.40;43.70;;;;;;220024;1270;25242;-57
2022/07/19 15:06:58;;;;;;;4.50;2.20;;;26.40;44.30;;;;;;220015;1270;25580;-57
2022/07/19 15:12:04;;;;;;;2.90;2.00;;;26.40;46.40;;;;;;221516;1267;22609;-58
2022/07/19 15:17:08;;;;;;;4.20;2.40;;;26.40;46.30;;;;;;220520;1267;22533;-57
2022/07/19 15:22:12;;;;;;;4.50;2.50;;;26.30;44.60;;;;;;220259;1267;24700;-58
2022/07/19 15:27:16;;;;;;;4.50;2.60;;;26.30;45.70;;;;;;220386;1269;22531;-58
2022/07/19 15:32:25;;;;;;;3.40;2.30;;;26.40;46.30;;;;;;220712;1267;22544;-58
2022/07/19 15:37:37;;;;;;;3.80;2.20;;;26.30;44.50;;;;;;220480;1267;22534;-58
2022/07/19 15:42:48;;;;;;;3.50;2.10;;;26.40;45.10;;;;;;220315;1267;22535;-59
2022/07/19 15:47:53;;;;;;;3.40;2.30;;;26.40;45.50;;;;;;220911;1268;22528;-58
2022/07/19 15:52:57;;;;;;;3.80;2.70;;;26.40;44.90;;;;;;220777;1267;22533;-59
2022/07/19 15:58:12;;;;;;;6.60;2.70;;;26.40;46.00;;;;;;220727;1267;24295;-59
2022/07/19 16:03:19;;;;;;;4.70;2.30;;;26.40;46.40;;;;;;220196;1270;28071;-56
2022/07/19 16:08:23;;;;;;;3.10;2.00;;;26.40;46.60;;;;;;220686;1267;22525;-58
2022/07/19 16:13:27;;;;;;;3.80;2.20;;;26.40;46.50;;;;;;220450;1267;24336;-60
2022/07/19 16:18:33;;;;;;;4.00;2.50;;;26.40;45.80;;;;;;220400;1267;24269;-56
2022/07/19 16:23:37;;;;;;;3.70;2.20;;;26.40;46.20;;;;;;220287;1267;22529;-57
2022/07/19 16:28:40;;;;;;;3.80;2.30;;;26.40;46.30;;;;;;220630;1267;24220;-56
2022/07/19 16:33:44;;;;;;;3.30;2.20;;;26.40;45.70;;;;;;220578;1267;22526;-57
2022/07/19 16:38:48;;;;;;;4.10;2.30;;;26.40;45.80;;;;;;220706;1270;23034;-58
2022/07/19 16:44:12;;;;;;;4.80;2.30;;;26.40;46.40;;;;;;220464;1267;24377;-58
2022/07/19 16:49:16;;;;;;;5.50;2.30;;;26.40;47.10;;;;;;220258;1268;22696;-58
2022/07/19 16:54:19;;;;;;;4.60;2.50;;;26.40;46.70;;;;;;220333;1267;22548;-56
2022/07/19 16:59:24;;;;;;;3.70;2.20;;;26.40;47.00;;;;;;220292;1267;22556;-56
2022/07/19 17:04:28;;;;;;;3.60;2.30;;;26.40;46.80;;;;;;220615;1267;22563;-60
2022/07/19 17:09:34;;;;;;;3.00;2.10;;;26.40;47.50;;;;;;220806;1267;23018;-60
2022/07/19 17:14:38;;;;;;;3.40;2.40;;;26.40;47.70;;;;;;220812;1267;22550;-57
2022/07/19 17:19:41;;;;;;;3.70;2.20;;;26.40;47.60;;;;;;220980;1267;25246;-57
2022/07/19 17:24:45;;;;;;;3.30;2.10;;;26.40;47.80;;;;;;220687;1267;25310;-57
2022/07/19 17:29:55;;;;;;;3.50;1.80;;;26.40;48.30;;;;;;220412;1267;24275;-58
2022/07/19 17:34:59;;;;;;;3.70;2.40;;;26.40;48.00;;;;;;220292;1267;22547;-58
2022/07/19 17:40:04;;;;;;;3.70;2.20;;;26.40;48.10;;;;;;220349;1268;23001;-58
2022/07/19 17:45:08;;;;;;;3.40;2.00;;;26.40;48.10;;;;;;220382;1266;22523;-58
2022/07/19 17:50:11;;;;;;;3.30;2.30;;;26.40;48.20;;;;;;220201;1270;25419;-58
2022/07/19 17:55:15;;;;;;;3.10;1.90;;;26.40;48.20;;;;;;220165;1271;22693;-57
2022/07/19 18:00:19;;;;;;;3.00;2.10;;;26.40;48.30;;;;;;220413;1267;22537;-58
2022/07/19 18:05:24;;;;;;;3.40;2.30;;;26.40;48.40;;;;;;220557;1267;25025;-58
2022/07/19 18:10:27;;;;;;;3.20;2.10;;;26.40;48.80;;;;;;220768;1267;25349;-57
2022/07/19 18:15:31;;;;;;;4.20;2.30;;;26.40;48.90;;;;;;220425;1269;24906;-56
2022/07/19 18:20:55;;;;;;;3.80;2.20;;;26.40;48.60;;;;;;220534;1267;24189;-58
2022/07/19 18:25:59;;;;;;;2.50;1.90;;;26.40;48.50;;;;;;220656;1267;25306;-58
2022/07/19 18:31:03;;;;;;;3.10;2.20;;;26.40;49.10;;;;;;220364;1267;25348;-58
2022/07/19 18:36:09;;;;;;;3.20;2.20;;;26.40;48.50;;;;;;220600;1267;24807;-57
2022/07/19 18:41:13;;;;;;;2.60;2.00;;;26.40;48.90;;;;;;220567;1267;25236;-59
2022/07/19 18:46:17;;;;;;;3.60;2.60;;;26.40;49.00;;;;;;220287;1268;22623;-58
2022/07/19 18:51:21;;;;;;;3.60;2.40;;;26.40;49.10;;;;;;220164;1271;22551;-57
2022/07/19 18:56:25;;;;;;;3.10;2.20;;;26.40;49.00;;;;;;220487;1267;25468;-56
2022/07/19 19:01:32;;;;;;;3.30;2.10;;;26.30;49.30;;;;;;220698;1268;22726;-58
2022/07/19 19:06:38;;;;;;;3.70;2.10;;;26.40;49.40;;;;;;220731;1267;22542;-58
2022/07/19 19:11:42;;;;;;;4.10;2.40;;;26.30;49.20;;;;;;220600;1268;25235;-58
2022/07/19 19:16:52;;;;;;;3.50;2.40;;;26.30;49.20;;;;;;220561;1267;22528;-57
2022/07/19 19:21:56;;;;;;;4.10;2.70;;;26.30;49.50;;;;;;220412;1267;24277;-57
2022/07/19 19:27:10;;;;;;;4.30;2.10;;;26.30;49.50;;;;;;220327;1267;23903;-58
2022/07/19 19:32:15;;;;;;;3.30;2.30;;;26.30;49.80;;;;;;220519;1267;22537;-57
2022/07/19 19:37:22;;;;;;;4.30;2.40;;;26.30;49.60;;;;;;220574;1268;24216;-57
2022/07/19 19:42:26;;;;;;;3.80;2.40;;;26.20;49.60;;;;;;220438;1270;22555;-58
2022/07/19 19:47:29;;;;;;;3.20;2.30;;;26.20;49.70;;;;;;220755;1268;24220;-58
2022/07/19 19:52:36;;;;;;;4.00;2.60;;;26.20;49.70;;;;;;220558;1268;25297;-59
2022/07/19 19:57:41;;;;;;;5.30;2.70;;;26.20;50.00;;;;;;220229;1268;25393;-57
2022/07/19 20:03:00;;;;;;;4.10;2.80;;;26.20;50.00;;;;;;220776;1268;24364;-61
2022/07/19 20:08:16;;;;;;;5.40;3.20;;;26.20;49.70;;;;;;220568;1270;22574;-59
2022/07/19 20:13:26;;;;;;;5.20;2.60;;;26.20;49.70;;;;;;220434;1268;25236;-57
2022/07/19 20:18:34;;;;;;;4.80;3.20;;;26.20;49.70;;;;;;220290;1269;25233;-58
2022/07/19 20:23:40;;;;;;;5.00;3.30;;;26.20;49.90;;;;;;220043;1271;22711;-58
2022/07/19 20:28:43;;;;;;;6.60;3.40;;;26.20;49.90;;;;;;220274;1268;24221;-56
2022/07/19 20:33:48;;;;;;;6.20;3.40;;;26.20;50.30;;;;;;220180;1271;24215;-58
2022/07/19 20:38:52;;;;;;;5.10;3.30;;;26.10;49.90;;;;;;220333;1268;22819;-58
2022/07/19 20:43:56;;;;;;;5.20;3.10;;;26.10;50.00;;;;;;220306;1269;22528;-60
2022/07/19 20:49:00;;;;;;;6.00;3.10;;;26.10;50.00;;;;;;220407;1268;22529;-57
2022/07/19 20:54:04;;;;;;;4.90;3.50;;;26.10;50.00;;;;;;220288;1268;25238;-58
2022/07/19 20:59:08;;;;;;;4.50;3.30;;;26.10;50.10;;;;;;220369;1268;24210;-56
2022/07/19 21:04:12;;;;;;;6.00;3.00;;;26.10;50.10;;;;;;220436;1270;24236;-58
2022/07/19 21:09:16;;;;;;;6.30;3.50;;;26.10;50.20;;;;;;220498;1268;22557;-58
2022/07/19 21:14:19;;;;;;;5.80;3.50;;;26.10;50.20;;;;;;220065;1268;22540;-57
2022/07/19 21:19:23;;;;;;;6.40;3.80;;;26.00;50.20;;;;;;220415;1268;22558;-57
2022/07/19 21:24:31;;;;;;;3.90;3.10;;;26.00;50.20;;;;;;220773;1268;24353;-58
2022/07/19 21:29:36;;;;;;;7.00;3.20;;;26.00;50.20;;;;;;220465;1268;22553;-58
2022/07/19 21:34:41;;;;;;;5.80;3.60;;;26.10;50.30;;;;;;220443;1268;22535;-58
2022/07/19 21:39:44;;;;;;;4.90;3.50;;;26.00;50.30;;;;;;220303;1268;25306;-58
2022/07/19 21:44:51;;;;;;;6.20;3.90;;;26.00;50.40;;;;;;220086;1268;23899;-58
2022/07/19 21:50:02;;;;;;;6.20;4.20;;;26.00;50.80;;;;;;220305;1268;22551;-58
2022/07/19 21:55:07;;;;;;;4.80;3.40;;;26.00;50.50;;;;;;220328;1268;22539;-58
2022/07/19 22:00:14;;;;;;;8.20;4.10;;;26.00;50.90;;;;;;220384;1268;22545;-59
2022/07/19 22:05:17;;;;;;;7.20;3.70;;;26.00;50.70;;;;;;220358;1268;22563;-61
2022/07/19 22:10:21;;;;;;;5.80;3.30;;;26.00;50.70;;;;;;220539;1268;25515;-57
2022/07/19 22:15:25;;;;;;;5.60;3.70;;;26.00;50.80;;;;;;220357;1268;25127;-59
2022/07/19 22:20:28;;;;;;;7.60;3.60;;;26.00;51.00;;;;;;220114;1268;22523;-58
2022/07/19 22:25:32;;;;;;;8.40;4.20;;;26.00;51.20;;;;;;220277;1268;24214;-58
2022/07/19 22:30:36;;;;;;;7.90;3.80;;;26.00;51.40;;;;;;220195;1268;22618;-58
2022/07/19 22:35:40;;;;;;;5.00;3.50;;;25.90;51.40;;;;;;220281;1267;24765;-60
2022/07/19 22:40:43;;;;;;;5.70;3.90;;;26.00;51.40;;;;;;220068;1270;22599;-57
2022/07/19 22:45:47;;;;;;;5.00;3.70;;;25.90;51.40;;;;;;220634;1267;23937;-58
2022/07/19 22:50:53;;;;;;;5.70;3.70;;;25.90;51.80;;;;;;220710;1267;22704;-58
2022/07/19 22:55:57;;;;;;;6.20;3.40;;;26.00;51.70;;;;;;220197;1267;22568;-59
2022/07/19 23:01:03;;;;;;;7.70;4.00;;;25.90;51.60;;;;;;220177;1268;22527;-58
2022/07/19 23:06:10;;;;;;;5.50;3.70;;;25.90;51.80;;;;;;220460;1267;22550;-58
2022/07/19 23:11:13;;;;;;;6.40;4.50;;;25.90;51.70;;;;;;220244;1267;24923;-57
2022/07/19 23:16:18;;;;;;;12.80;4.10;;;25.90;51.80;;;;;;220205;1267;24210;-59
2022/07/19 23:21:22;;;;;;;5.50;3.90;;;25.80;51.70;;;;;;220164;1268;22546;-59
2022/07/19 23:26:25;;;;;;;8.90;3.60;;;25.90;52.00;;;;;;220077;1268;25339;-58
2022/07/19 23:31:29;;;;;;;7.60;4.50;;;25.80;51.70;;;;;;220164;1267;23789;-60
2022/07/19 23:36:33;;;;;;;6.70;3.60;;;25.90;52.20;;;;;;220111;1268;23048;-57
2022/07/19 23:41:37;;;;;;;6.10;4.10;;;25.80;52.20;;;;;;220441;1268;22534;-58
2022/07/19 23:46:40;;;;;;;7.40;4.30;;;25.80;52.20;;;;;;220331;1267;24235;-57
2022/07/19 23:51:44;;;;;;;7.40;4.40;;;25.80;52.30;;;;;;220180;1267;25335;-58
2022/07/19 23:56:51;;;;;;;6.40;3.80;;;25.80;52.60;;;;;;220699;1267;22553;-62
